Nagyvárad, Magyarország

2017 Február 27 12:31 AM (CET időzóna) (GMT +0100)
CARTIER IORGA | | Change Station

Elev 461 ft 47.06 °N, 21.94 °E | Updated 4 seconds ago

Helyenként felhős
Helyenként felhős
39.0 °F
Hőérzet 39 °F
N
0.0
Szél: változó Szél: from délkeleti
Gusts 0.0 mph

Ma
High -- | Low -- °F
--% Csapadék valószínű
Tegnapi
High -- | Low -- °F
Precip. -- hvlyk.
Légnyomás 30.09 hvlyk.
Látótávolság 6.2 mérföld
Felhők Jórészt felhős 15000 ft
Hőérzet 39 °F
Harmatpont 31 °F
Páratartalom 74%
Rainfall 0.00 hvlyk.
Hóréteg vastagsága Not available.
6:16 AM 5:15 PM
Újhold, 0% visible
METAR LROD 262300Z AUTO 11005KT 9999 BKN150/// 03/M02 Q1019
Légnyomás 30.09 hvlyk.
Látótávolság 6.2 mérföld
Felhők Jórészt felhős 15000 ft
Hőérzet 39 °F
Harmatpont 31 °F
Páratartalom 74%
Rainfall 0.00 hvlyk.
Hóréteg vastagsága Not available.
6:16 AM 5:15 PM
Újhold, 0% visible
METAR LROD 262300Z AUTO 11005KT 9999 BKN150/// 03/M02 Q1019

Get Your Daily Forecast Email!

Thanks for signing up!

Be on the lookout for a verification email in your inbox.

You'll start receiving the daily forecast at 8 AM.

×

10-Day Weather Forecast

×

Almanac

Csillagászat

Feb. 27, 2017 Kel Nyugszik
Tényleges idő
Civil alkony
Tengerészeti alkony
Csillagászati alkony
Hold
Látható fény időtartama
A nap hossza
Tomorrow will be .
, % of the Moon is Illuminated

Today's Extremes

Country Highs Country Lows

Community

WunderPhotos

Upload Photos

1,962,540 Fotók feltöltve.

WunderBlog® & News

Nearby

A levegő minősége

  A levegő minősége AQ Index Szennyezőanyag
Not available.

Hóréteg vastagsága

Station Depth Elevation

Earthquake Activity

város Distance Mag. Time & Date
Minimum magnitude displayed is 2.5.

Coastal Water Temperatures

Hely Hőmérséklet

Stations

Közeli meteorológiai állomások

Station Location Hőm. Hőérzet Harmatpont Páratartalom Szél: Precip. Elev Frissítve Type